createdAt,value
2023-05-04T00:00:48.230Z,88855.00
2023-05-04T00:01:48.226Z,88853.00
2023-05-04T00:02:48.367Z,88851.00
2023-05-04T00:03:48.415Z,88853.00
2023-05-04T00:04:48.284Z,88853.00
2023-05-04T00:05:48.218Z,88851.00
2023-05-04T00:06:48.229Z,88853.00
2023-05-04T00:07:48.234Z,88853.00
2023-05-04T00:08:48.232Z,88855.00
2023-05-04T00:09:48.227Z,88851.00
2023-05-04T00:10:48.258Z,88853.00
2023-05-04T00:11:48.240Z,88855.00
2023-05-04T00:12:48.240Z,88851.00
2023-05-04T00:13:48.244Z,88853.00
2023-05-04T00:14:48.207Z,88853.00
2023-05-04T00:15:48.311Z,88855.00
2023-05-04T00:16:48.236Z,88855.00
2023-05-04T00:17:48.316Z,88853.00
2023-05-04T00:18:48.223Z,88853.00
2023-05-04T00:19:48.227Z,88853.00
2023-05-04T00:20:48.223Z,88853.00
2023-05-04T00:21:48.238Z,88855.00
2023-05-04T00:22:48.260Z,88851.00
2023-05-04T00:23:48.225Z,88851.00
2023-05-04T00:24:48.228Z,88849.00
2023-05-04T00:25:48.226Z,88853.00
2023-05-04T00:26:48.283Z,88851.00
2023-05-04T00:27:48.336Z,88849.00
2023-05-04T00:28:48.400Z,88849.00
2023-05-04T00:29:48.462Z,88847.00
2023-05-04T00:30:48.508Z,88847.00
2023-05-04T00:31:48.584Z,88845.00
2023-05-04T00:32:48.693Z,88843.00
2023-05-04T00:33:48.653Z,88842.00
2023-05-04T00:34:48.726Z,88840.00
2023-05-04T00:35:48.773Z,88840.00
2023-05-04T00:36:48.834Z,88840.00
2023-05-04T00:37:48.864Z,88840.00
2023-05-04T00:38:48.926Z,88838.00
2023-05-04T00:39:48.961Z,88836.00
2023-05-04T00:40:49.030Z,88838.00
2023-05-04T00:41:49.077Z,88836.00
2023-05-04T00:42:49.107Z,88838.00
2023-05-04T00:43:49.185Z,88838.00
2023-05-04T00:44:49.225Z,88838.00
2023-05-04T00:45:49.279Z,88838.00
2023-05-04T00:46:49.400Z,88836.00
2023-05-04T00:47:49.439Z,88838.00
2023-05-04T00:48:49.441Z,88838.00
2023-05-04T00:49:49.488Z,88840.00
2023-05-04T00:50:49.576Z,88840.00
2023-05-04T00:51:49.610Z,88840.00
2023-05-04T00:52:49.639Z,88836.00
2023-05-04T00:53:49.676Z,88838.00
2023-05-04T00:54:49.741Z,88838.00
2023-05-04T00:55:49.808Z,88836.00
2023-05-04T00:56:50.231Z,88836.00
2023-05-04T00:57:49.890Z,88834.00
2023-05-04T00:58:49.961Z,88836.00
2023-05-04T00:59:50.174Z,88836.00
2023-05-04T01:00:50.107Z,88834.00
2023-05-04T01:01:50.136Z,88832.00
2023-05-04T01:02:50.264Z,88834.00
2023-05-04T01:03:50.213Z,88832.00
2023-05-04T01:04:50.246Z,88836.00
2023-05-04T01:05:50.321Z,88834.00
2023-05-04T01:06:50.371Z,88836.00
2023-05-04T01:07:50.424Z,88834.00
2023-05-04T01:08:50.457Z,88834.00
2023-05-04T01:09:50.530Z,88836.00
2023-05-04T01:10:50.610Z,88834.00
2023-05-04T01:11:50.648Z,88836.00
2023-05-04T01:12:50.701Z,88836.00
2023-05-04T01:13:50.724Z,88836.00
2023-05-04T01:14:50.766Z,88836.00
2023-05-04T01:15:50.881Z,88836.00
2023-05-04T01:16:50.910Z,88836.00
2023-05-04T01:17:50.974Z,88838.00
2023-05-04T01:18:50.976Z,88838.00
2023-05-04T01:19:51.053Z,88838.00
2023-05-04T01:20:51.083Z,88838.00
2023-05-04T01:21:51.164Z,88838.00
2023-05-04T01:22:51.233Z,88838.00
2023-05-04T01:23:51.262Z,88840.00
2023-05-04T01:24:51.296Z,88838.00
2023-05-04T01:25:51.364Z,88838.00
2023-05-04T01:26:51.396Z,88838.00
2023-05-04T01:27:51.441Z,88836.00
2023-05-04T01:28:51.513Z,88836.00
2023-05-04T01:29:51.540Z,88834.00
2023-05-04T01:30:51.662Z,88834.00
2023-05-04T01:31:51.648Z,88832.00
2023-05-04T01:32:51.746Z,88834.00
2023-05-04T01:33:51.784Z,88834.00
2023-05-04T01:34:51.812Z,88830.00
2023-05-04T01:35:51.857Z,88832.00
2023-05-04T01:36:51.908Z,88832.00
2023-05-04T01:37:52.020Z,88832.00
2023-05-04T01:38:52.000Z,88832.00
2023-05-04T01:39:52.052Z,88830.00
2023-05-04T01:40:52.104Z,88834.00
2023-05-04T01:41:52.154Z,88832.00
2023-05-04T01:42:52.240Z,88828.00
2023-05-04T01:43:52.242Z,88830.00
2023-05-04T01:44:52.321Z,88830.00
2023-05-04T01:45:52.360Z,88826.00
2023-05-04T01:46:52.414Z,88828.00
2023-05-04T01:47:52.509Z,88826.00
2023-05-04T01:48:52.527Z,88826.00
2023-05-04T01:49:52.568Z,88828.00
2023-05-04T01:50:52.669Z,88826.00
2023-05-04T01:51:52.705Z,88824.00
2023-05-04T01:52:52.741Z,88824.00
2023-05-04T01:53:52.799Z,88824.00
2023-05-04T01:54:52.860Z,88824.00
2023-05-04T01:55:52.896Z,88822.00
2023-05-04T01:56:52.997Z,88824.00
2023-05-04T01:57:53.024Z,88822.00
2023-05-04T01:58:53.097Z,88824.00
2023-05-04T01:59:53.116Z,88822.00
2023-05-04T02:00:53.187Z,88824.00
2023-05-04T02:01:53.257Z,88824.00
2023-05-04T02:02:53.238Z,88824.00
2023-05-04T02:03:53.353Z,88824.00
2023-05-04T02:04:53.197Z,88824.00
2023-05-04T02:05:53.196Z,88822.00
2023-05-04T02:06:53.260Z,88822.00
2023-05-04T02:07:53.187Z,88822.00
2023-05-04T02:08:53.199Z,88822.00
2023-05-04T02:09:53.196Z,88824.00
2023-05-04T02:10:53.214Z,88822.00
2023-05-04T02:11:53.212Z,88822.00
2023-05-04T02:12:53.238Z,88822.00
2023-05-04T02:13:53.190Z,88820.00
2023-05-04T02:14:53.185Z,88818.00
2023-05-04T02:15:53.203Z,88820.00
2023-05-04T02:16:53.207Z,88818.00
2023-05-04T02:17:53.208Z,88818.00
2023-05-04T02:18:53.190Z,88816.00
2023-05-04T02:19:53.224Z,88820.00
2023-05-04T02:20:53.304Z,88818.00
2023-05-04T02:21:53.332Z,88816.00
2023-05-04T02:22:53.287Z,88816.00
2023-05-04T02:23:53.290Z,88818.00
2023-05-04T02:24:53.330Z,88818.00
2023-05-04T02:25:53.315Z,88818.00
2023-05-04T02:26:53.302Z,88816.00
2023-05-04T02:27:53.342Z,88818.00
2023-05-04T02:28:53.275Z,88816.00
2023-05-04T02:29:53.273Z,88818.00
2023-05-04T02:30:53.285Z,88818.00
2023-05-04T02:31:53.365Z,88818.00
2023-05-04T02:32:53.432Z,88818.00
2023-05-04T02:33:53.439Z,88816.00
2023-05-04T02:34:53.487Z,88818.00
2023-05-04T02:35:53.556Z,88810.00
2023-05-04T02:36:53.596Z,88818.00
2023-05-04T02:37:53.682Z,88814.00
2023-05-04T02:38:53.732Z,88814.00
2023-05-04T02:39:53.762Z,88816.00
2023-05-04T02:40:53.819Z,88818.00
2023-05-04T02:41:53.963Z,88820.00
2023-05-04T02:42:53.944Z,88820.00
2023-05-04T02:43:53.979Z,88822.00
2023-05-04T02:44:54.046Z,88820.00
2023-05-04T02:45:54.121Z,88820.00
2023-05-04T02:46:54.174Z,88820.00
2023-05-04T02:47:54.316Z,88818.00
2023-05-04T02:48:54.332Z,88822.00
2023-05-04T02:49:54.414Z,88820.00
2023-05-04T02:50:54.435Z,88822.00
2023-05-04T02:51:54.501Z,88822.00
2023-05-04T02:52:54.565Z,88820.00
2023-05-04T02:53:54.664Z,88824.00
2023-05-04T02:54:54.703Z,88824.00
2023-05-04T02:55:54.747Z,88822.00
2023-05-04T02:56:54.818Z,88822.00
2023-05-04T02:57:54.896Z,88822.00
2023-05-04T02:58:54.930Z,88822.00
2023-05-04T02:59:54.996Z,88822.00
2023-05-04T03:00:55.090Z,88822.00
2023-05-04T03:01:55.201Z,88816.00
2023-05-04T03:02:55.195Z,88816.00
2023-05-04T03:03:55.248Z,88818.00
2023-05-04T03:04:55.260Z,88818.00
2023-05-04T03:05:55.289Z,88818.00
2023-05-04T03:06:55.338Z,88820.00
2023-05-04T03:07:55.338Z,88818.00
2023-05-04T03:08:55.328Z,88822.00
2023-05-04T03:09:55.357Z,88820.00
2023-05-04T03:10:55.367Z,88824.00
2023-05-04T03:11:55.375Z,88826.00
2023-05-04T03:12:55.450Z,88826.00
2023-05-04T03:13:55.414Z,88828.00
2023-05-04T03:14:55.366Z,88828.00
2023-05-04T03:15:55.381Z,88828.00
2023-05-04T03:16:55.470Z,88826.00
2023-05-04T03:17:55.429Z,88828.00
2023-05-04T03:18:55.408Z,88828.00
2023-05-04T03:19:55.425Z,88826.00
2023-05-04T03:20:55.420Z,88828.00
2023-05-04T03:21:55.450Z,88828.00
2023-05-04T03:22:55.440Z,88828.00
2023-05-04T03:23:55.453Z,88826.00
2023-05-04T03:24:55.460Z,88828.00
2023-05-04T03:25:55.455Z,88830.00
2023-05-04T03:26:55.486Z,88828.00
2023-05-04T03:27:55.507Z,88828.00
2023-05-04T03:28:55.503Z,88830.00
2023-05-04T03:29:55.518Z,88828.00
2023-05-04T03:30:55.519Z,88830.00
2023-05-04T03:31:55.551Z,88830.00
2023-05-04T03:32:55.623Z,88830.00
2023-05-04T03:33:55.550Z,88830.00
2023-05-04T03:34:55.562Z,88830.00
2023-05-04T03:35:55.564Z,88828.00
2023-05-04T03:36:55.569Z,88828.00
2023-05-04T03:37:55.583Z,88828.00
2023-05-04T03:38:55.599Z,88824.00
2023-05-04T03:39:55.613Z,88826.00
2023-05-04T03:40:55.619Z,88826.00
2023-05-04T03:41:55.617Z,88826.00
2023-05-04T03:42:55.619Z,88828.00
2023-05-04T03:43:55.627Z,88828.00
2023-05-04T03:44:55.659Z,88828.00
2023-05-04T03:45:55.698Z,88830.00
2023-05-04T03:46:55.700Z,88830.00
2023-05-04T03:47:55.735Z,88834.00
2023-05-04T03:48:55.694Z,88834.00
2023-05-04T03:49:55.707Z,88836.00
2023-05-04T03:50:55.763Z,88830.00
2023-05-04T03:51:55.780Z,88834.00
2023-05-04T03:52:55.836Z,88838.00
2023-05-04T03:53:55.880Z,88836.00
2023-05-04T03:54:55.948Z,88836.00
2023-05-04T03:55:55.998Z,88838.00
2023-05-04T03:56:56.036Z,88838.00
2023-05-04T03:57:56.073Z,88836.00
2023-05-04T03:58:56.079Z,88836.00
2023-05-04T03:59:57.810Z,88836.00
2023-05-04T04:00:56.149Z,88836.00
2023-05-04T04:01:56.189Z,88834.00
2023-05-04T04:02:56.274Z,88836.00
2023-05-04T04:03:56.555Z,88836.00
2023-05-04T04:04:56.328Z,88838.00
2023-05-04T04:05:56.330Z,88838.00
2023-05-04T04:06:56.345Z,88838.00
2023-05-04T04:07:56.372Z,88840.00
2023-05-04T04:08:56.394Z,88834.00
2023-05-04T04:09:56.382Z,88830.00
2023-05-04T04:10:56.381Z,88832.00
2023-05-04T04:11:56.402Z,88832.00
2023-05-04T04:12:56.475Z,88832.00
2023-05-04T04:13:56.427Z,88834.00
2023-05-04T04:14:56.425Z,88834.00
2023-05-04T04:15:56.545Z,88834.00
2023-05-04T04:16:56.489Z,88834.00
2023-05-04T04:17:56.529Z,88836.00
2023-05-04T04:18:56.503Z,88834.00
2023-05-04T04:19:56.483Z,88834.00
2023-05-04T04:20:56.497Z,88832.00
2023-05-04T04:21:56.569Z,88836.00
2023-05-04T04:22:56.560Z,88834.00
2023-05-04T04:23:56.542Z,88834.00
2023-05-04T04:24:56.584Z,88832.00
2023-05-04T04:25:56.584Z,88830.00
2023-05-04T04:26:56.595Z,88834.00
2023-05-04T04:27:56.635Z,88834.00
2023-05-04T04:28:56.643Z,88834.00
2023-05-04T04:29:56.688Z,88838.00
2023-05-04T04:30:56.692Z,88834.00
2023-05-04T04:31:56.783Z,88836.00
2023-05-04T04:32:56.732Z,88836.00
2023-05-04T04:33:56.734Z,88836.00
2023-05-04T04:34:56.749Z,88836.00
2023-05-04T04:35:56.771Z,88838.00
2023-05-04T04:36:56.784Z,88840.00
2023-05-04T04:37:56.805Z,88836.00
2023-05-04T04:38:56.817Z,88836.00
2023-05-04T04:39:56.838Z,88836.00
2023-05-04T04:40:56.872Z,88838.00
2023-05-04T04:41:56.842Z,88836.00
2023-05-04T04:42:56.892Z,88836.00
2023-05-04T04:43:56.880Z,88836.00
2023-05-04T04:44:56.911Z,88838.00
2023-05-04T04:45:56.911Z,88836.00
2023-05-04T04:46:57.104Z,88832.00
2023-05-04T04:47:57.042Z,88836.00
2023-05-04T04:48:57.001Z,88832.00
2023-05-04T04:49:57.026Z,88830.00
2023-05-04T04:50:57.033Z,88830.00
2023-05-04T04:51:57.075Z,88826.00
2023-05-04T04:52:57.109Z,88828.00
2023-05-04T04:53:57.131Z,88830.00
2023-05-04T04:54:57.179Z,88830.00
2023-05-04T04:55:57.207Z,88828.00
2023-05-04T04:56:57.255Z,88828.00
2023-05-04T04:57:57.318Z,88830.00
2023-05-04T04:58:57.276Z,88826.00
2023-05-04T04:59:57.316Z,88828.00
2023-05-04T05:00:57.359Z,88828.00
2023-05-04T05:01:57.330Z,88826.00
2023-05-04T05:02:57.436Z,88828.00
2023-05-04T05:03:57.363Z,88824.00
2023-05-04T05:04:57.461Z,88824.00
2023-05-04T05:05:57.505Z,88822.00
2023-05-04T05:06:57.425Z,88822.00
2023-05-04T05:07:57.468Z,88822.00
2023-05-04T05:08:57.453Z,88820.00
2023-05-04T05:09:57.477Z,88822.00
2023-05-04T05:10:57.484Z,88820.00
2023-05-04T05:11:57.501Z,88818.00
2023-05-04T05:12:57.574Z,88818.00
2023-05-04T05:13:57.521Z,88818.00
2023-05-04T05:14:57.546Z,88816.00
2023-05-04T05:15:57.549Z,88818.00
2023-05-04T05:16:57.668Z,88818.00
2023-05-04T05:17:57.632Z,88820.00
2023-05-04T05:18:57.598Z,88822.00
2023-05-04T05:19:57.618Z,88818.00
2023-05-04T05:20:57.651Z,88822.00
2023-05-04T05:21:57.665Z,88820.00
2023-05-04T05:22:57.672Z,88820.00
2023-05-04T05:23:57.693Z,88820.00
2023-05-04T05:24:57.691Z,88822.00
2023-05-04T05:25:57.723Z,88820.00
2023-05-04T05:26:57.727Z,88818.00
2023-05-04T05:27:59.118Z,88816.00
2023-05-04T05:28:57.782Z,88818.00
2023-05-04T05:29:57.772Z,88818.00
2023-05-04T05:30:57.891Z,88818.00
2023-05-04T05:31:57.810Z,88818.00
2023-05-04T05:32:58.301Z,88816.00
2023-05-04T05:33:57.843Z,88818.00
2023-05-04T05:35:05.656Z,88818.00
2023-05-04T05:35:57.896Z,88812.00
2023-05-04T05:36:57.953Z,88816.00
2023-05-04T05:37:58.434Z,88816.00
2023-05-04T05:38:57.934Z,88816.00
2023-05-04T05:39:57.936Z,88816.00
2023-05-04T05:40:57.960Z,88818.00
2023-05-04T05:41:57.976Z,88814.00
2023-05-04T05:42:58.008Z,88814.00
2023-05-04T05:43:58.060Z,88818.00
2023-05-04T05:44:58.072Z,88814.00
2023-05-04T05:45:58.088Z,88818.00
2023-05-04T05:46:58.077Z,88816.00
2023-05-04T05:47:58.118Z,88816.00
2023-05-04T05:48:58.107Z,88814.00
2023-05-04T05:49:58.120Z,88812.00
2023-05-04T05:50:58.147Z,88812.00
2023-05-04T05:51:58.246Z,88810.00
2023-05-04T05:52:58.162Z,88810.00
2023-05-04T05:53:58.179Z,88812.00
2023-05-04T05:55:01.062Z,88808.00
2023-05-04T05:55:58.202Z,88808.00
2023-05-04T05:56:58.418Z,88808.00
2023-05-04T05:57:58.400Z,88810.00
2023-05-04T05:58:58.493Z,88812.00
2023-05-04T05:59:58.278Z,88812.00
2023-05-04T06:00:58.922Z,88812.00
2023-05-04T06:01:58.320Z,88808.00
2023-05-04T06:02:58.510Z,88808.00
2023-05-04T06:03:58.690Z,88806.00
2023-05-04T06:04:58.419Z,88804.00
2023-05-04T06:05:58.432Z,88806.00
2023-05-04T06:06:58.472Z,88804.00
2023-05-04T06:08:00.733Z,88802.00
2023-05-04T06:08:59.132Z,88802.00
2023-05-04T06:09:58.567Z,88804.00
2023-05-04T06:10:58.462Z,88802.00
2023-05-04T06:11:58.507Z,88802.00
2023-05-04T06:12:58.663Z,88800.00
2023-05-04T06:13:58.610Z,88798.00
2023-05-04T06:14:58.627Z,88796.00
2023-05-04T06:15:58.686Z,88795.00
2023-05-04T06:16:58.739Z,88793.00
2023-05-04T06:17:58.821Z,88793.00
2023-05-04T06:18:58.833Z,88793.00
2023-05-04T06:19:58.877Z,88796.00
2023-05-04T06:20:58.924Z,88793.00
2023-05-04T06:21:58.997Z,88791.00
2023-05-04T06:22:59.064Z,88789.00
2023-05-04T06:23:59.099Z,88787.00
2023-05-04T06:25:03.619Z,88787.00
2023-05-04T06:26:00.260Z,88785.00
2023-05-04T06:26:59.206Z,88787.00
2023-05-04T06:27:59.222Z,88800.00
2023-05-04T06:28:59.223Z,88777.00
2023-05-04T06:29:59.263Z,88781.00
2023-05-04T06:30:59.288Z,88781.00
2023-05-04T06:31:59.354Z,88777.00
2023-05-04T06:32:59.355Z,88777.00
2023-05-04T06:33:59.319Z,88781.00
2023-05-04T06:34:59.419Z,88777.00
2023-05-04T06:35:59.374Z,88779.00
2023-05-04T06:36:59.371Z,88781.00
2023-05-04T06:37:59.490Z,88785.00
2023-05-04T06:38:59.453Z,88783.00
2023-05-04T06:39:59.416Z,88783.00
2023-05-04T06:41:00.388Z,88777.00
2023-05-04T06:41:59.547Z,88777.00
2023-05-04T06:42:59.565Z,88777.00
2023-05-04T06:43:59.553Z,88777.00
2023-05-04T06:44:59.492Z,88773.00
2023-05-04T06:45:59.628Z,88777.00
2023-05-04T06:47:00.409Z,88779.00
2023-05-04T06:48:00.416Z,88777.00
2023-05-04T06:48:59.668Z,88771.00
2023-05-04T06:49:59.683Z,88771.00
2023-05-04T06:51:01.537Z,88765.00
2023-05-04T06:51:59.976Z,88767.00
2023-05-04T06:53:00.077Z,88763.00
2023-05-04T06:53:59.984Z,88761.00
2023-05-04T06:55:00.061Z,88761.00
2023-05-04T06:56:00.165Z,88761.00
2023-05-04T06:57:00.048Z,88763.00
2023-05-04T06:58:00.051Z,88763.00
2023-05-04T06:59:00.133Z,88761.00
2023-05-04T07:00:00.069Z,88763.00
2023-05-04T07:01:00.161Z,88763.00
2023-05-04T07:02:00.215Z,88763.00
2023-05-04T07:03:00.323Z,88761.00
2023-05-04T07:04:00.504Z,88757.00
2023-05-04T07:05:00.415Z,88757.00
2023-05-04T07:06:00.495Z,88757.00
2023-05-04T07:07:00.594Z,88755.00
2023-05-04T07:08:00.658Z,88755.00
2023-05-04T07:09:00.707Z,88755.00
2023-05-04T07:10:00.679Z,88755.00
2023-05-04T07:11:00.628Z,88757.00
2023-05-04T07:12:00.658Z,88755.00
2023-05-04T07:13:00.724Z,88757.00
2023-05-04T07:14:00.721Z,88755.00
2023-05-04T07:15:00.718Z,88757.00
2023-05-04T07:16:00.782Z,88757.00
2023-05-04T07:17:00.780Z,88755.00
2023-05-04T07:18:00.844Z,88759.00
2023-05-04T07:19:00.779Z,88757.00
2023-05-04T07:20:00.810Z,88757.00
2023-05-04T07:21:16.200Z,88759.00
2023-05-04T07:22:01.836Z,88757.00
2023-05-04T07:23:00.842Z,88755.00
2023-05-04T07:24:00.809Z,88755.00
2023-05-04T07:25:01.066Z,88753.00
2023-05-04T07:26:00.852Z,88753.00
2023-05-04T07:27:00.857Z,88751.00
2023-05-04T07:28:00.878Z,88751.00
2023-05-04T07:29:00.898Z,88751.00
2023-05-04T07:30:01.015Z,88746.00
2023-05-04T07:31:00.932Z,88751.00
2023-05-04T07:32:00.935Z,88748.00
2023-05-04T07:33:01.980Z,88746.00
2023-05-04T07:34:00.966Z,88744.00
2023-05-04T07:35:00.980Z,88742.00
2023-05-04T07:36:01.014Z,88742.00
2023-05-04T07:37:01.121Z,88740.00
2023-05-04T07:38:01.122Z,88738.00
2023-05-04T07:39:01.231Z,88738.00
2023-05-04T07:40:01.336Z,88736.00
2023-05-04T07:41:01.328Z,88736.00
2023-05-04T07:42:01.320Z,88734.00
2023-05-04T07:43:01.412Z,88734.00
2023-05-04T07:44:01.405Z,88725.00
2023-05-04T07:45:01.421Z,88725.00
2023-05-04T07:46:01.497Z,88727.00
2023-05-04T07:47:01.802Z,88723.00
2023-05-04T07:48:01.462Z,88723.00
2023-05-04T07:49:01.429Z,88721.00
2023-05-04T07:50:01.447Z,88719.00
2023-05-04T07:51:01.584Z,88719.00
2023-05-04T07:52:01.447Z,88719.00
2023-05-04T07:53:01.544Z,88715.00
2023-05-04T07:54:01.575Z,88719.00
2023-05-04T07:55:01.477Z,88713.00
2023-05-04T07:56:01.566Z,88713.00
2023-05-04T07:57:02.416Z,88715.00
2023-05-04T07:58:01.540Z,88709.00
2023-05-04T07:59:01.665Z,88711.00
2023-05-04T08:00:01.530Z,88713.00
2023-05-04T08:01:01.491Z,88709.00
2023-05-04T08:02:01.518Z,88711.00
2023-05-04T08:03:01.600Z,88713.00
2023-05-04T08:04:01.497Z,88713.00
2023-05-04T08:05:01.508Z,88713.00
2023-05-04T08:06:02.498Z,88711.00
2023-05-04T08:07:01.509Z,88707.00
2023-05-04T08:08:01.596Z,88705.00
2023-05-04T08:09:02.414Z,88703.00
2023-05-04T08:10:01.573Z,88703.00
2023-05-04T08:11:15.801Z,88703.00
2023-05-04T08:12:02.544Z,88703.00
2023-05-04T08:13:01.566Z,88703.00
2023-05-04T08:14:01.547Z,88701.00
2023-05-04T08:15:01.596Z,88703.00
2023-05-04T08:16:01.556Z,88701.00
2023-05-04T08:17:01.565Z,88701.00
2023-05-04T08:18:01.615Z,88703.00
2023-05-04T08:19:01.552Z,88689.00
2023-05-04T08:20:01.508Z,88687.00
2023-05-04T08:21:01.588Z,88689.00
2023-05-04T08:22:01.498Z,88685.00
2023-05-04T08:23:01.548Z,88687.00
2023-05-04T08:24:01.541Z,88685.00
2023-05-04T08:25:02.563Z,88687.00
2023-05-04T08:26:02.422Z,88687.00
2023-05-04T08:27:07.967Z,88681.00
2023-05-04T08:28:02.604Z,88683.00
2023-05-04T08:29:01.968Z,88683.00
2023-05-04T08:30:01.593Z,88681.00
2023-05-04T08:31:01.708Z,88689.00
2023-05-04T08:32:01.620Z,88689.00
2023-05-04T08:33:01.660Z,88689.00
2023-05-04T08:34:01.862Z,88689.00
2023-05-04T08:35:01.581Z,88687.00
2023-05-04T08:36:01.617Z,88685.00
2023-05-04T08:37:01.612Z,88685.00
2023-05-04T08:38:01.682Z,88685.00
2023-05-04T08:39:01.617Z,88683.00
2023-05-04T08:40:01.610Z,88683.00
2023-05-04T08:41:01.591Z,88681.00
2023-05-04T08:42:01.598Z,88679.00
2023-05-04T08:43:01.633Z,88681.00
2023-05-04T08:44:01.951Z,88683.00
2023-05-04T08:45:01.638Z,88679.00
2023-05-04T08:46:01.742Z,88679.00
2023-05-04T08:47:02.431Z,88685.00
2023-05-04T08:48:01.680Z,88681.00
2023-05-04T08:49:01.643Z,88679.00
2023-05-04T08:50:02.108Z,88681.00
2023-05-04T08:51:01.640Z,88675.00
2023-05-04T08:52:01.621Z,88679.00
2023-05-04T08:53:01.731Z,88675.00
2023-05-04T08:54:01.966Z,88675.00
2023-05-04T08:55:01.640Z,88677.00
2023-05-04T08:56:01.627Z,88675.00
2023-05-04T08:57:01.689Z,88672.00
2023-05-04T08:58:01.740Z,88672.00
2023-05-04T08:59:01.780Z,88675.00
2023-05-04T09:00:02.018Z,88673.00
2023-05-04T09:01:02.807Z,88675.00
2023-05-04T09:02:01.897Z,88673.00
2023-05-04T09:03:01.900Z,88672.00
2023-05-04T09:04:01.858Z,88672.00
2023-05-04T09:05:01.841Z,88672.00
2023-05-04T09:06:01.906Z,88675.00
2023-05-04T09:07:01.895Z,88675.00
2023-05-04T09:08:02.053Z,88672.00
2023-05-04T09:09:02.079Z,88672.00
2023-05-04T09:10:02.033Z,88675.00
2023-05-04T09:11:02.081Z,88675.00
2023-05-04T09:12:02.186Z,88673.00
2023-05-04T09:13:02.254Z,88675.00
2023-05-04T09:14:02.300Z,88673.00
2023-05-04T09:15:02.678Z,88673.00
2023-05-04T09:16:02.339Z,88673.00
2023-05-04T09:17:02.458Z,88677.00
2023-05-04T09:18:02.451Z,88672.00
2023-05-04T09:19:02.583Z,88675.00
2023-05-04T09:20:02.375Z,88672.00
2023-05-04T09:21:02.345Z,88672.00
2023-05-04T09:22:02.417Z,88672.00
2023-05-04T09:23:02.364Z,88673.00
2023-05-04T09:24:02.407Z,88672.00
2023-05-04T09:25:02.456Z,88673.00
2023-05-04T09:26:02.374Z,88673.00
2023-05-04T09:27:02.444Z,88666.00
2023-05-04T09:28:02.388Z,88666.00
2023-05-04T09:29:02.490Z,88666.00
2023-05-04T09:30:02.340Z,88662.00
2023-05-04T09:31:02.384Z,88664.00
2023-05-04T09:32:02.304Z,88664.00
2023-05-04T09:33:02.345Z,88662.00
2023-05-04T09:34:02.381Z,88664.00
2023-05-04T09:35:02.707Z,88662.00
2023-05-04T09:36:02.455Z,88662.00
2023-05-04T09:37:02.667Z,88660.00
2023-05-04T09:38:02.561Z,88658.00
2023-05-04T09:39:02.627Z,88660.00
2023-05-04T09:40:02.699Z,88660.00
2023-05-04T09:41:02.766Z,88658.00
2023-05-04T09:42:02.771Z,88656.00
2023-05-04T09:43:03.037Z,88658.00
2023-05-04T09:44:02.965Z,88656.00
2023-05-04T09:45:03.145Z,88660.00
2023-05-04T09:46:02.882Z,88662.00
2023-05-04T09:47:02.808Z,88660.00
2023-05-04T09:48:03.470Z,88658.00
2023-05-04T09:49:02.914Z,88658.00
2023-05-04T09:50:03.138Z,88654.00
2023-05-04T09:51:03.486Z,88652.00
2023-05-04T09:52:03.004Z,88652.00
2023-05-04T09:53:02.922Z,88654.00
2023-05-04T09:54:02.840Z,88650.00
2023-05-04T09:55:03.007Z,88650.00
2023-05-04T09:56:05.070Z,88648.00
2023-05-04T09:57:02.791Z,88648.00
2023-05-04T09:58:02.963Z,88644.00
2023-05-04T09:59:02.820Z,88648.00
2023-05-04T10:00:02.855Z,88642.00
2023-05-04T10:01:02.767Z,88640.00
2023-05-04T10:02:18.231Z,88638.00
2023-05-04T10:03:03.772Z,88636.00
2023-05-04T10:04:03.060Z,88638.00
2023-05-04T10:05:02.929Z,88634.00
2023-05-04T10:06:03.469Z,88634.00
2023-05-04T10:07:02.694Z,88632.00
2023-05-04T10:08:02.721Z,88632.00
2023-05-04T10:09:02.846Z,88630.00
2023-05-04T10:10:02.678Z,88628.00
2023-05-04T10:11:02.752Z,88628.00
2023-05-04T10:12:02.693Z,88624.00
2023-05-04T10:13:02.792Z,88624.00
2023-05-04T10:14:02.854Z,88626.00
2023-05-04T10:15:02.924Z,88621.00
2023-05-04T10:16:02.995Z,88621.00
2023-05-04T10:17:02.948Z,88624.00
2023-05-04T10:18:03.116Z,88624.00
2023-05-04T10:19:04.124Z,88624.00
2023-05-04T10:20:03.103Z,88622.00
2023-05-04T10:21:03.213Z,88622.00
2023-05-04T10:22:03.185Z,88624.00
2023-05-04T10:23:03.172Z,88622.00
2023-05-04T10:24:03.247Z,88622.00
2023-05-04T10:25:04.177Z,88622.00
2023-05-04T10:26:03.402Z,88624.00
2023-05-04T10:27:03.411Z,88622.00
2023-05-04T10:28:06.007Z,88621.00
2023-05-04T10:29:03.675Z,88619.00
2023-05-04T10:30:04.501Z,88619.00
2023-05-04T10:31:03.815Z,88617.00
2023-05-04T10:32:03.882Z,88619.00
2023-05-04T10:33:03.915Z,88617.00
2023-05-04T10:34:03.858Z,88617.00
2023-05-04T10:35:04.169Z,88615.00
2023-05-04T10:36:03.953Z,88613.00
2023-05-04T10:37:04.101Z,88613.00
2023-05-04T10:38:04.040Z,88613.00
2023-05-04T10:39:04.511Z,88613.00
2023-05-04T10:40:07.178Z,88611.00
2023-05-04T10:41:04.036Z,88611.00
2023-05-04T10:42:05.085Z,88611.00
2023-05-04T10:43:04.084Z,88609.00
2023-05-04T10:44:04.025Z,88611.00
2023-05-04T10:45:04.261Z,88607.00
2023-05-04T10:46:04.015Z,88607.00
2023-05-04T10:47:04.032Z,88609.00
2023-05-04T10:48:04.004Z,88607.00
2023-05-04T10:49:03.986Z,88605.00
2023-05-04T10:50:03.948Z,88607.00
2023-05-04T10:51:03.939Z,88601.00
2023-05-04T10:52:04.099Z,88601.00
2023-05-04T10:53:03.967Z,88599.00
2023-05-04T10:54:03.986Z,88597.00
2023-05-04T10:55:04.130Z,88599.00
2023-05-04T10:56:03.918Z,88597.00
2023-05-04T10:57:03.995Z,88597.00
2023-05-04T10:58:03.897Z,88597.00
2023-05-04T10:59:03.928Z,88593.00
2023-05-04T11:00:03.900Z,88591.00
2023-05-04T11:01:04.020Z,88595.00
2023-05-04T11:02:06.566Z,88591.00
2023-05-04T11:03:04.212Z,88595.00
2023-05-04T11:04:03.926Z,88593.00
2023-05-04T11:05:04.811Z,88593.00
2023-05-04T11:06:03.900Z,88587.00
2023-05-04T11:07:03.997Z,88587.00
2023-05-04T11:08:03.887Z,88589.00
2023-05-04T11:09:04.120Z,88589.00
2023-05-04T11:10:04.533Z,88589.00
2023-05-04T11:11:03.852Z,88589.00
2023-05-04T11:12:03.910Z,88587.00
2023-05-04T11:13:06.113Z,88585.00
2023-05-04T11:14:04.325Z,88583.00
2023-05-04T11:15:03.945Z,88585.00
2023-05-04T11:16:03.844Z,88581.00
2023-05-04T11:17:05.388Z,88581.00
2023-05-04T11:18:03.962Z,88581.00
2023-05-04T11:19:03.813Z,88583.00
2023-05-04T11:20:03.861Z,88579.00
2023-05-04T11:21:03.769Z,88581.00
2023-05-04T11:22:03.900Z,88579.00
2023-05-04T11:23:04.510Z,88579.00
2023-05-04T11:24:03.764Z,88579.00
2023-05-04T11:25:04.029Z,88583.00
2023-05-04T11:26:03.876Z,88573.00
2023-05-04T11:27:03.837Z,88571.00
2023-05-04T11:28:03.744Z,88579.00
2023-05-04T11:29:03.779Z,88579.00
2023-05-04T11:30:03.891Z,88579.00
2023-05-04T11:31:05.678Z,88579.00
2023-05-04T11:32:04.507Z,88579.00
2023-05-04T11:33:03.913Z,88583.00
2023-05-04T11:34:03.712Z,88577.00
2023-05-04T11:35:03.916Z,88577.00
2023-05-04T11:36:04.560Z,88577.00
2023-05-04T11:37:03.705Z,88577.00
2023-05-04T11:38:03.674Z,88575.00
2023-05-04T11:39:03.753Z,88573.00
2023-05-04T11:40:04.595Z,88571.00
2023-05-04T11:41:03.822Z,88573.00
2023-05-04T11:42:03.849Z,88573.00
2023-05-04T11:43:03.932Z,88573.00
2023-05-04T11:44:04.005Z,88573.00
2023-05-04T11:45:04.759Z,88570.00